This is the latest recevied weather packets stored in our database for station/object WQ5C-13. If no packets are shown the sender has not sent any weather packets the latest 10 day(s).
| Time | Temp. | Humidity | Pressure | Rain* | Wind** | Luminosity | Snow |
|---|---|---|---|---|---|---|---|
| 1777975215 | 20° C | 92% | 1008.1 hPa | 0 mm | - | - | - |
| 1777972215 | 19.44° C | 93% | 1008.3 hPa | 0 mm | - | - | - |
| 1777971616 | 19.44° C | 92% | 1008.2 hPa | 0 mm | - | - | - |
| 1777971015 | 19.44° C | 92% | 1008.3 hPa | 0 mm | - | - | - |
| 1777965615 | 19.44° C | 90% | 1009.4 hPa | 0 mm | - | - | - |
| 1777961415 | 19.44° C | 89% | 1010 hPa | 0 mm | - | - | - |
| 1777960816 | 20° C | 89% | 1010.1 hPa | 0 mm | - | - | - |
| 1777960215 | 20° C | 88% | 1010.2 hPa | 0 mm | - | - | - |
| 1777954815 | 20.56° C | 85% | 1010.1 hPa | 0 mm | - | - | - |
| 1777954215 | 20.56° C | 85% | 1010.2 hPa | 0 mm | - | - | - |
| 1777953015 | 21.11° C | 84% | 1009.9 hPa | 0 mm | - | - | - |
| 1777952435 | 21.11° C | 83% | 1010 hPa | 0 mm | - | - | - |
| 1777951215 | 21.67° C | 81% | 1009.9 hPa | 0 mm | - | - | - |
| 1777950616 | 21.67° C | 80% | 1009.9 hPa | 0 mm | - | - | - |
| 1777949435 | 21.67° C | 79% | 1010 hPa | 0 mm | - | - | - |
| 1777948236 | 22.22° C | 78% | 1009.8 hPa | 0 mm | - | - | - |
| 1777946415 | 22.22° C | 75% | 1009.4 hPa | 0 mm | - | - | - |
| 1777945215 | 22.78° C | 74% | 1009.5 hPa | 0 mm | - | - | - |
| 1777941615 | 23.89° C | 68% | 1009.2 hPa | 0 mm | - | - | - |
| 1777940435 | 23.89° C | 66% | 1009.1 hPa | 0 mm | - | - | - |
| 1777929035 | 24.44° C | 61% | 1011.2 hPa | 0 mm | - | - | - |
| 1777927236 | 25° C | 60% | 1011.8 hPa | 0 mm | - | - | - |
| 1777920016 | 25° C | 59% | 1013.3 hPa | 0 mm | - | - | - |
| 1777919415 | 25° C | 58% | 1013.2 hPa | 0 mm | - | - | - |
| 1777918815 | 25° C | 60% | 1013.4 hPa | 0 mm | - | - | - |
* Rain latest hour (hover to see other rain measurements)
** Current wind speed in m/s (hover to see current wind gust speed)